createdAt,value
2023-01-13T00:00:10.390Z,9.3
2023-01-13T00:03:09.958Z,9.3
2023-01-13T00:06:10.025Z,9.3
2023-01-13T00:09:10.031Z,9.2
2023-01-13T00:12:10.036Z,9.1
2023-01-13T00:15:10.029Z,9.1
2023-01-13T00:18:10.018Z,9
2023-01-13T00:21:10.066Z,9
2023-01-13T00:24:09.999Z,8.9
2023-01-13T00:27:10.028Z,9
2023-01-13T00:30:10.178Z,9.1
2023-01-13T00:33:10.064Z,9.1
2023-01-13T00:36:10.012Z,9.1
2023-01-13T00:39:10.070Z,9.1
2023-01-13T00:42:10.049Z,9.1
2023-01-13T00:45:10.001Z,9.1
2023-01-13T00:48:10.148Z,9.1
2023-01-13T00:51:10.187Z,9.1
2023-01-13T00:54:09.985Z,9.1
2023-01-13T00:57:10.055Z,9.1
2023-01-13T01:00:10.103Z,9.1
2023-01-13T01:03:10.045Z,9.1
2023-01-13T01:06:10.066Z,8.9
2023-01-13T01:09:10.188Z,8.9
2023-01-13T01:12:10.088Z,9
2023-01-13T01:15:10.252Z,9
2023-01-13T01:18:10.024Z,9.1
2023-01-13T01:21:10.032Z,9.1
2023-01-13T01:24:10.119Z,9.3
2023-01-13T01:27:10.043Z,9.3
2023-01-13T01:30:10.036Z,9.3
2023-01-13T01:33:10.012Z,9.2
2023-01-13T01:36:10.052Z,9.2
2023-01-13T01:39:10.025Z,9.2
2023-01-13T01:42:10.079Z,9.3
2023-01-13T01:45:10.088Z,9.3
2023-01-13T01:48:10.005Z,9.3
2023-01-13T01:51:10.044Z,9.4
2023-01-13T01:54:10.135Z,9.3
2023-01-13T01:57:10.122Z,9.3
2023-01-13T02:00:10.138Z,9.3
2023-01-13T02:03:10.407Z,9.3
2023-01-13T02:06:10.014Z,9.3
2023-01-13T02:09:10.133Z,9.3
2023-01-13T02:12:09.986Z,9.3
2023-01-13T02:15:09.999Z,9.3
2023-01-13T02:18:10.133Z,9.3
2023-01-13T02:21:10.002Z,9.2
2023-01-13T02:24:10.313Z,9.1
2023-01-13T02:27:10.402Z,9
2023-01-13T02:30:10.047Z,9
2023-01-13T02:33:10.006Z,8.9
2023-01-13T02:36:10.030Z,8.9
2023-01-13T02:39:10.080Z,8.9
2023-01-13T02:42:10.060Z,8.8
2023-01-13T02:45:10.149Z,8.8
2023-01-13T02:48:10.059Z,8.8
2023-01-13T02:51:10.051Z,8.7
2023-01-13T02:54:10.009Z,8.6
2023-01-13T02:57:10.025Z,8.6
2023-01-13T03:00:09.800Z,8.5
2023-01-13T03:03:09.920Z,8.4
2023-01-13T03:06:09.699Z,8.4
2023-01-13T03:09:09.765Z,8.2
2023-01-13T03:12:10.065Z,8.2
2023-01-13T03:15:09.738Z,8.2
2023-01-13T03:18:09.778Z,8.3
2023-01-13T03:21:09.720Z,8.2
2023-01-13T03:24:09.786Z,8.2
2023-01-13T03:27:09.780Z,8.2
2023-01-13T03:30:09.723Z,8.2
2023-01-13T03:33:09.737Z,8.3
2023-01-13T03:36:09.747Z,8.3
2023-01-13T03:39:09.813Z,8.4
2023-01-13T03:42:09.707Z,8.4
2023-01-13T03:45:09.842Z,8.4
2023-01-13T03:48:09.686Z,8.4
2023-01-13T03:51:09.756Z,8.4
2023-01-13T03:54:09.747Z,8.4
2023-01-13T03:57:09.860Z,8.4
2023-01-13T04:00:09.840Z,8.4
2023-01-13T04:03:09.743Z,8.3
2023-01-13T04:06:09.731Z,8.3
2023-01-13T04:09:09.850Z,8.4
2023-01-13T04:12:09.730Z,8.4
2023-01-13T04:15:09.757Z,8.3
2023-01-13T04:18:09.744Z,8.3
2023-01-13T04:21:09.728Z,8.4
2023-01-13T04:24:09.763Z,8.4
2023-01-13T04:27:09.840Z,8.4
2023-01-13T04:30:09.883Z,8.4
2023-01-13T04:33:09.820Z,8.4
2023-01-13T04:36:09.707Z,8.4
2023-01-13T04:39:09.779Z,8.4
2023-01-13T04:42:09.801Z,8.4
2023-01-13T04:45:09.651Z,8.4
2023-01-13T04:48:09.806Z,8.2
2023-01-13T04:51:09.758Z,8.1
2023-01-13T04:54:09.787Z,8
2023-01-13T04:57:09.797Z,7.9
2023-01-13T05:00:09.920Z,7.9
2023-01-13T05:03:09.838Z,7.9
2023-01-13T05:06:09.829Z,8
2023-01-13T05:09:09.689Z,8
2023-01-13T05:12:09.909Z,7.9
2023-01-13T05:15:09.710Z,8
2023-01-13T05:18:09.739Z,7.9
2023-01-13T05:21:09.712Z,7.7
2023-01-13T05:24:09.678Z,7.6
2023-01-13T05:27:09.837Z,7.5
2023-01-13T05:30:09.727Z,7.5
2023-01-13T05:33:09.676Z,7.3
2023-01-13T05:36:09.876Z,7.4
2023-01-13T05:39:09.746Z,7.4
2023-01-13T05:42:09.733Z,7.4
2023-01-13T05:45:09.769Z,7.4
2023-01-13T05:48:09.654Z,7.3
2023-01-13T05:51:10.219Z,7.3
2023-01-13T05:54:10.004Z,7.1
2023-01-13T05:57:09.734Z,7.1
2023-01-13T06:00:10.192Z,7.1
2023-01-13T06:03:10.171Z,6.9
2023-01-13T06:06:09.744Z,6.7
2023-01-13T06:09:09.726Z,6.6
2023-01-13T06:12:09.805Z,6.6
2023-01-13T06:15:09.766Z,6.6
2023-01-13T06:18:09.743Z,6.5
2023-01-13T06:21:09.734Z,6.6
2023-01-13T06:24:09.837Z,6.6
2023-01-13T06:27:09.778Z,6.6
2023-01-13T06:30:09.701Z,6.6
2023-01-13T06:33:09.734Z,6.6
2023-01-13T06:36:09.688Z,6.6
2023-01-13T06:39:09.732Z,6.7
2023-01-13T06:42:09.899Z,6.7
2023-01-13T06:45:10.453Z,6.7
2023-01-13T06:48:09.645Z,6.7
2023-01-13T06:51:09.709Z,6.7
2023-01-13T06:54:09.712Z,6.7
2023-01-13T06:57:09.858Z,6.9
2023-01-13T07:00:09.872Z,6.9
2023-01-13T07:03:11.709Z,6.8
2023-01-13T07:06:09.737Z,6.7
2023-01-13T07:09:11.402Z,6.6
2023-01-13T07:12:09.727Z,6.7
2023-01-13T07:15:09.776Z,6.6
2023-01-13T07:18:09.726Z,6.7
2023-01-13T07:21:09.804Z,6.8
2023-01-13T07:24:09.819Z,6.9
2023-01-13T07:27:09.774Z,6.8
2023-01-13T07:30:10.108Z,6.8
2023-01-13T07:33:09.762Z,6.7
2023-01-13T07:36:09.805Z,6.7
2023-01-13T07:39:09.773Z,6.7
2023-01-13T07:42:09.819Z,6.7
2023-01-13T07:45:12.141Z,6.6
2023-01-13T07:48:09.839Z,6.5
2023-01-13T07:51:09.828Z,6.4
2023-01-13T07:54:09.795Z,6.3
2023-01-13T07:57:09.749Z,6.3
2023-01-13T08:00:12.029Z,6.4
2023-01-13T08:03:10.209Z,6.6
2023-01-13T08:06:09.927Z,6.8
2023-01-13T08:09:09.784Z,7
2023-01-13T08:12:09.961Z,7.1
2023-01-13T08:15:10.438Z,7.1
2023-01-13T08:18:09.844Z,7.1
2023-01-13T08:21:10.293Z,7.1
2023-01-13T08:24:09.780Z,7.2
2023-01-13T08:27:09.772Z,7.4
2023-01-13T08:30:10.008Z,7.4
2023-01-13T08:33:09.745Z,7.6
2023-01-13T08:36:09.799Z,7.7
2023-01-13T08:39:09.732Z,7.9
2023-01-13T08:42:09.813Z,7.9
2023-01-13T08:45:09.795Z,8
2023-01-13T08:48:09.800Z,8.1
2023-01-13T08:51:09.899Z,8.1
2023-01-13T08:54:09.905Z,8.2
2023-01-13T08:57:10.183Z,8.2
2023-01-13T09:00:09.912Z,8.1
2023-01-13T09:03:09.791Z,7.9
2023-01-13T09:06:09.797Z,7.9
2023-01-13T09:09:09.748Z,7.8
2023-01-13T09:12:09.863Z,7.9
2023-01-13T09:15:09.840Z,7.9
2023-01-13T09:18:09.698Z,7.9
2023-01-13T09:21:09.730Z,8
2023-01-13T09:24:09.793Z,8.1
2023-01-13T09:27:09.893Z,8
2023-01-13T09:30:09.949Z,7.9
2023-01-13T09:33:09.731Z,8.1
2023-01-13T09:36:09.870Z,8.3
2023-01-13T09:39:09.844Z,8.7
2023-01-13T09:42:09.836Z,8.8
2023-01-13T09:45:09.780Z,8.8
2023-01-13T09:48:09.814Z,8.7
2023-01-13T09:51:10.190Z,8.7
2023-01-13T09:54:09.752Z,8.7
2023-01-13T09:57:09.737Z,9
2023-01-13T10:00:09.959Z,9.4
2023-01-13T10:03:09.824Z,9.2
2023-01-13T10:06:09.821Z,9.2
2023-01-13T10:09:09.782Z,9.5
2023-01-13T10:12:09.744Z,9.7
2023-01-13T10:15:09.766Z,10.1
2023-01-13T10:18:09.899Z,9.9
2023-01-13T10:21:09.763Z,10.2
2023-01-13T10:24:10.010Z,10.6
2023-01-13T10:27:09.785Z,10.9
2023-01-13T10:30:09.886Z,11.1
2023-01-13T10:33:09.866Z,11.5
2023-01-13T10:36:09.829Z,11.8
2023-01-13T10:39:09.813Z,11.7
2023-01-13T10:42:09.883Z,11
2023-01-13T10:45:09.786Z,10.1
2023-01-13T10:48:09.730Z,9.6
2023-01-13T10:51:09.716Z,9.4
2023-01-13T10:54:09.805Z,10.1
2023-01-13T10:57:09.774Z,10.6
2023-01-13T11:00:09.853Z,11.1
2023-01-13T11:03:09.780Z,11.3
2023-01-13T11:06:10.012Z,10.6
2023-01-13T11:09:09.749Z,10.3
2023-01-13T11:12:09.818Z,10.2
2023-01-13T11:15:09.911Z,10.5
2023-01-13T11:18:09.948Z,10.3
2023-01-13T11:21:09.737Z,10.2
2023-01-13T11:24:09.777Z,9.9
2023-01-13T11:27:09.831Z,9.7
2023-01-13T11:30:10.172Z,9.7
2023-01-13T11:33:09.751Z,9.9
2023-01-13T11:36:09.944Z,9.9
2023-01-13T11:39:09.749Z,10.3
2023-01-13T11:42:09.888Z,10.1
2023-01-13T11:45:09.916Z,9.9
2023-01-13T11:48:09.948Z,9.8
2023-01-13T11:51:10.071Z,9.9
2023-01-13T11:54:09.839Z,9.9
2023-01-13T11:57:10.091Z,9.9
2023-01-13T12:00:10.015Z,9.8
2023-01-13T12:03:10.211Z,10
2023-01-13T12:06:10.284Z,10.1
2023-01-13T12:09:09.975Z,9.8
2023-01-13T12:12:10.078Z,9.8
2023-01-13T12:15:09.848Z,9.8
2023-01-13T12:18:09.791Z,9.7
2023-01-13T12:21:09.737Z,9.8
2023-01-13T12:24:09.874Z,9.7
2023-01-13T12:27:09.846Z,9.6
2023-01-13T12:30:10.031Z,9.6
2023-01-13T12:33:09.742Z,9.6
2023-01-13T12:36:09.794Z,9.6
2023-01-13T12:39:09.831Z,9.6
2023-01-13T12:42:09.724Z,9.4
2023-01-13T12:45:10.355Z,9.2
2023-01-13T12:48:09.799Z,9
2023-01-13T12:51:09.795Z,9.1
2023-01-13T12:54:09.812Z,9.2
2023-01-13T12:57:09.719Z,9.3
2023-01-13T13:00:10.018Z,9.3
2023-01-13T13:03:09.973Z,9.4
2023-01-13T13:06:09.827Z,9.5
2023-01-13T13:09:13.248Z,9.5
2023-01-13T13:12:10.013Z,9.4
2023-01-13T13:15:13.147Z,9.3
2023-01-13T13:18:09.837Z,9.3
2023-01-13T13:21:13.795Z,9.3
2023-01-13T13:24:09.908Z,9.4
2023-01-13T13:27:12.622Z,9.4
2023-01-13T13:30:09.997Z,9.6
2023-01-13T13:33:09.795Z,9.5
2023-01-13T13:36:09.813Z,9.4
2023-01-13T13:39:10.602Z,9.3
2023-01-13T13:42:09.798Z,9.1
2023-01-13T13:45:09.836Z,8.9
2023-01-13T13:48:09.949Z,8.8
2023-01-13T13:51:09.943Z,8.7
2023-01-13T13:54:09.911Z,8.6
2023-01-13T13:57:09.790Z,8.6
2023-01-13T14:00:09.960Z,8.6
2023-01-13T14:03:09.803Z,8.7
2023-01-13T14:06:09.794Z,8.8
2023-01-13T14:09:09.698Z,8.8
2023-01-13T14:12:09.754Z,8.7
2023-01-13T14:15:09.723Z,8.6
2023-01-13T14:18:09.839Z,8.6
2023-01-13T14:21:09.719Z,8.6
2023-01-13T14:24:09.806Z,8.5
2023-01-13T14:27:09.675Z,8.4
2023-01-13T14:30:09.956Z,8.3
2023-01-13T14:33:09.811Z,8.1
2023-01-13T14:36:09.737Z,8.1
2023-01-13T14:39:09.720Z,7.9
2023-01-13T14:42:09.785Z,7.9
2023-01-13T14:45:09.674Z,7.8
2023-01-13T14:48:09.683Z,7.7
2023-01-13T14:51:09.674Z,7.7
2023-01-13T14:54:09.639Z,7.7
2023-01-13T14:57:09.760Z,7.7
2023-01-13T15:00:09.726Z,7.6
2023-01-13T15:03:10.174Z,7.5
2023-01-13T15:06:09.687Z,7.4
2023-01-13T15:09:09.709Z,7.4
2023-01-13T15:12:09.703Z,7.2
2023-01-13T15:15:10.617Z,7.1
2023-01-13T15:18:09.741Z,7.1
2023-01-13T15:21:09.734Z,7.1
2023-01-13T15:24:09.722Z,7.1
2023-01-13T15:27:09.628Z,7.1
2023-01-13T15:30:09.872Z,7.1
2023-01-13T15:33:09.578Z,7
2023-01-13T15:36:09.641Z,6.9
2023-01-13T15:39:09.672Z,7
2023-01-13T15:42:09.643Z,7
2023-01-13T15:45:09.973Z,7
2023-01-13T15:48:10.890Z,7.1
2023-01-13T15:51:11.284Z,7.1
2023-01-13T15:54:09.623Z,7.1
2023-01-13T15:57:09.625Z,7.1
2023-01-13T16:00:09.750Z,7.1
2023-01-13T16:03:09.948Z,7.1
2023-01-13T16:06:09.651Z,6.9
2023-01-13T16:09:12.384Z,6.9
2023-01-13T16:12:09.666Z,6.9
2023-01-13T16:15:09.654Z,6.9
2023-01-13T16:18:09.684Z,6.9
2023-01-13T16:21:09.654Z,6.9
2023-01-13T16:24:09.683Z,6.9
2023-01-13T16:27:09.668Z,6.9
2023-01-13T16:30:09.686Z,7
2023-01-13T16:33:09.663Z,7.1
2023-01-13T16:36:21.402Z,7.1
2023-01-13T16:39:09.758Z,6.9
2023-01-13T16:42:09.751Z,6.9
2023-01-13T16:45:10.695Z,6.9
2023-01-13T16:48:09.864Z,6.9
2023-01-13T16:51:09.746Z,6.9
2023-01-13T16:54:09.970Z,6.9
2023-01-13T16:57:09.904Z,6.9
2023-01-13T17:00:09.858Z,6.9
2023-01-13T17:03:09.750Z,6.9
2023-01-13T17:06:09.788Z,6.9
2023-01-13T17:09:09.871Z,6.9
2023-01-13T17:12:09.736Z,6.9
2023-01-13T17:15:09.742Z,6.9
2023-01-13T17:18:10.189Z,6.9
2023-01-13T17:21:09.726Z,6.9
2023-01-13T17:24:09.694Z,6.8
2023-01-13T17:27:09.720Z,6.7
2023-01-13T17:30:09.831Z,6.6
2023-01-13T17:33:09.698Z,6.6
2023-01-13T17:36:09.810Z,6.7
2023-01-13T17:39:09.713Z,6.7
2023-01-13T17:42:09.889Z,6.8
2023-01-13T17:45:09.802Z,6.8
2023-01-13T17:48:09.986Z,6.9
2023-01-13T17:51:09.723Z,7
2023-01-13T17:54:09.710Z,7
2023-01-13T17:57:09.805Z,6.9
2023-01-13T18:00:09.765Z,6.9
2023-01-13T18:03:09.979Z,7
2023-01-13T18:06:09.759Z,7.1
2023-01-13T18:09:09.804Z,7.2
2023-01-13T18:12:09.685Z,7.2
2023-01-13T18:15:09.828Z,7.2
2023-01-13T18:18:10.036Z,7.2
2023-01-13T18:21:09.744Z,7.2
2023-01-13T18:24:09.744Z,7.3
2023-01-13T18:27:09.731Z,7.2
2023-01-13T18:30:09.773Z,7.2
2023-01-13T18:33:09.810Z,7.2
2023-01-13T18:36:09.825Z,7.1
2023-01-13T18:39:09.777Z,7.1
2023-01-13T18:42:09.716Z,7
2023-01-13T18:45:11.135Z,6.9
2023-01-13T18:48:09.899Z,6.9
2023-01-13T18:51:09.774Z,6.7
2023-01-13T18:54:09.774Z,6.7
2023-01-13T18:57:09.766Z,6.7
2023-01-13T19:00:09.830Z,6.7
2023-01-13T19:06:09.723Z,6.7
2023-01-13T19:09:09.683Z,6.9
2023-01-13T19:12:09.831Z,7.1
2023-01-13T19:15:09.743Z,7.2
2023-01-13T19:18:09.772Z,7.3
2023-01-13T19:21:09.774Z,7.4
2023-01-13T19:24:09.669Z,7.4
2023-01-13T19:27:09.640Z,7.4
2023-01-13T19:30:12.169Z,7.4
2023-01-13T19:33:09.661Z,7.4
2023-01-13T19:36:09.765Z,7.4
2023-01-13T19:39:09.758Z,7.4
2023-01-13T19:42:09.733Z,7.4
2023-01-13T19:45:09.755Z,7.3
2023-01-13T19:48:10.223Z,7.2
2023-01-13T19:51:09.726Z,7.2
2023-01-13T19:54:10.057Z,7.2
2023-01-13T19:57:09.771Z,7.1
2023-01-13T20:00:10.169Z,7
2023-01-13T20:03:10.562Z,6.9
2023-01-13T20:06:09.770Z,6.9
2023-01-13T20:09:09.856Z,6.8
2023-01-13T20:12:09.809Z,6.7
2023-01-13T20:15:09.844Z,6.6
2023-01-13T20:18:09.817Z,6.4
2023-01-13T20:21:09.765Z,6.4
2023-01-13T20:24:09.702Z,6.5
2023-01-13T20:27:09.796Z,6.6
2023-01-13T20:30:09.872Z,6.7
2023-01-13T20:33:09.712Z,6.7
2023-01-13T20:36:09.799Z,6.9
2023-01-13T20:39:09.780Z,6.9
2023-01-13T20:42:09.771Z,7
2023-01-13T20:45:09.747Z,7.1
2023-01-13T20:48:09.791Z,7.1
2023-01-13T20:51:09.741Z,7.2
2023-01-13T20:54:09.752Z,7.2
2023-01-13T20:57:09.764Z,7.2
2023-01-13T21:00:10.096Z,7.1
2023-01-13T21:03:09.755Z,7.1
2023-01-13T21:06:09.757Z,7.1
2023-01-13T21:09:09.712Z,7.1
2023-01-13T21:12:09.750Z,7.1
2023-01-13T21:15:09.775Z,7.1
2023-01-13T21:18:09.748Z,7.2
2023-01-13T21:21:09.763Z,7.3
2023-01-13T21:24:09.763Z,7.4
2023-01-13T21:27:09.732Z,7.3
2023-01-13T21:30:09.741Z,7.2
2023-01-13T21:33:09.804Z,7.1
2023-01-13T21:36:09.836Z,7.2
2023-01-13T21:39:09.799Z,7.3
2023-01-13T21:42:09.672Z,7.3
2023-01-13T21:45:09.960Z,7.4
2023-01-13T21:48:09.777Z,7.3
2023-01-13T21:51:09.864Z,7.2
2023-01-13T21:54:09.751Z,7.3
2023-01-13T21:57:09.825Z,7.4
2023-01-13T22:00:09.821Z,7.6
2023-01-13T22:03:09.753Z,7.6
2023-01-13T22:06:11.631Z,7.6
2023-01-13T22:09:09.839Z,7.6
2023-01-13T22:12:10.130Z,7.6
2023-01-13T22:15:09.751Z,7.6
2023-01-13T22:18:09.661Z,7.6
2023-01-13T22:21:09.753Z,7.6
2023-01-13T22:24:09.787Z,7.6
2023-01-13T22:27:09.851Z,7.6
2023-01-13T22:30:09.819Z,7.6
2023-01-13T22:33:09.821Z,7.5
2023-01-13T22:36:09.743Z,7.5
2023-01-13T22:39:10.078Z,7.6
2023-01-13T22:42:09.905Z,7.6
2023-01-13T22:45:09.784Z,7.6
2023-01-13T22:48:09.760Z,7.6
2023-01-13T22:51:09.872Z,7.6
2023-01-13T22:54:09.712Z,7.6
2023-01-13T22:57:09.817Z,7.6
2023-01-13T23:00:10.741Z,7.5
2023-01-13T23:03:09.738Z,7.4
2023-01-13T23:06:09.850Z,7.2
2023-01-13T23:09:09.855Z,7.1
2023-01-13T23:12:09.851Z,7.1
2023-01-13T23:15:09.794Z,7.1
2023-01-13T23:18:09.734Z,7
2023-01-13T23:21:09.815Z,6.9
2023-01-13T23:24:09.717Z,6.9
2023-01-13T23:27:09.867Z,6.9
2023-01-13T23:30:09.806Z,6.9
2023-01-13T23:33:09.761Z,7.1
2023-01-13T23:36:09.827Z,7.1
2023-01-13T23:39:09.863Z,7.1
2023-01-13T23:42:09.720Z,7.1
2023-01-13T23:45:09.837Z,7.1
2023-01-13T23:48:10.029Z,7.2
2023-01-13T23:51:09.770Z,7.2
2023-01-13T23:54:09.826Z,7.1
2023-01-13T23:57:09.789Z,7.1
